createdAt,value
2018-08-16T00:00:51.850Z,8.67
2018-08-16T00:03:19.442Z,8.30
2018-08-16T00:05:47.027Z,8.83
2018-08-16T00:08:14.515Z,8.30
2018-08-16T00:10:42.068Z,9.43
2018-08-16T00:13:09.594Z,8.07
2018-08-16T00:15:37.059Z,8.30
2018-08-16T00:18:04.843Z,8.20
2018-08-16T00:20:32.295Z,7.93
2018-08-16T00:22:59.766Z,8.97
2018-08-16T00:25:27.303Z,8.77
2018-08-16T00:27:54.811Z,9.00
2018-08-16T00:30:22.327Z,9.27
2018-08-16T00:32:49.884Z,8.70
2018-08-16T00:35:17.414Z,9.27
2018-08-16T00:37:44.915Z,10.30
2018-08-16T00:40:14.794Z,11.30
2018-08-16T00:42:42.330Z,10.67
2018-08-16T00:45:10.359Z,10.70
2018-08-16T00:47:37.998Z,10.47
2018-08-16T00:50:08.287Z,11.03
2018-08-16T00:52:35.773Z,10.63
2018-08-16T00:55:04.342Z,10.97
2018-08-16T00:57:32.005Z,11.93
2018-08-16T00:59:59.591Z,11.83
2018-08-16T01:02:27.136Z,11.07
2018-08-16T01:04:54.592Z,10.87
2018-08-16T01:07:22.118Z,11.27
2018-08-16T01:09:49.679Z,11.40
2018-08-16T01:12:17.431Z,10.70
2018-08-16T01:14:44.938Z,10.37
2018-08-16T01:17:12.656Z,11.97
2018-08-16T01:19:40.262Z,12.37
2018-08-16T01:22:08.024Z,11.40
2018-08-16T01:24:35.795Z,12.10
2018-08-16T01:27:03.427Z,10.60
2018-08-16T01:29:30.912Z,11.13
2018-08-16T01:31:58.358Z,11.70
2018-08-16T01:34:25.836Z,10.20
2018-08-16T01:36:53.351Z,11.37
2018-08-16T01:39:20.814Z,9.00
2018-08-16T01:41:48.307Z,11.70
2018-08-16T01:44:15.867Z,11.77
2018-08-16T01:46:43.497Z,9.90
2018-08-16T01:49:34.468Z,10.53
2018-08-16T01:52:01.864Z,10.17
2018-08-16T01:54:29.607Z,10.93
2018-08-16T01:56:57.603Z,11.97
2018-08-16T01:59:25.007Z,11.30
2018-08-16T02:01:52.344Z,11.50
2018-08-16T02:04:19.654Z,10.90
2018-08-16T02:06:47.695Z,11.10
2018-08-16T02:09:14.992Z,11.10
2018-08-16T02:11:42.251Z,11.30
2018-08-16T02:14:09.482Z,10.57
2018-08-16T02:16:37.347Z,10.00
2018-08-16T02:19:04.692Z,10.67
2018-08-16T02:21:32.053Z,9.73
2018-08-16T02:23:59.968Z,10.53
2018-08-16T02:26:27.195Z,10.47
2018-08-16T02:28:54.432Z,9.70
2018-08-16T02:31:21.779Z,10.73
2018-08-16T02:33:49.022Z,10.60
2018-08-16T02:36:16.841Z,9.77
2018-08-16T02:38:44.199Z,9.10
2018-08-16T02:41:11.488Z,9.60
2018-08-16T02:43:38.832Z,10.50
2018-08-16T02:46:06.319Z,11.30
2018-08-16T02:48:33.555Z,9.90
2018-08-16T02:51:00.893Z,9.60
2018-08-16T02:53:28.103Z,11.27
2018-08-16T02:55:55.477Z,11.30
2018-08-16T02:58:22.718Z,9.87
2018-08-16T03:00:50.021Z,10.20
2018-08-16T03:03:17.403Z,9.60
2018-08-16T03:05:44.683Z,9.40
2018-08-16T03:08:11.988Z,9.83
2018-08-16T03:10:42.028Z,10.07
2018-08-16T03:13:09.260Z,9.90
2018-08-16T03:15:36.548Z,10.00
2018-08-16T03:18:03.895Z,10.77
2018-08-16T03:20:31.116Z,9.80
2018-08-16T03:22:58.751Z,10.57
2018-08-16T03:25:26.019Z,10.33
2018-08-16T03:27:53.296Z,11.90
2018-08-16T03:30:20.988Z,12.00
2018-08-16T03:32:48.613Z,10.40
2018-08-16T03:35:15.876Z,11.77
2018-08-16T03:37:43.157Z,12.13
2018-08-16T03:40:10.432Z,10.43
2018-08-16T03:42:37.704Z,13.13
2018-08-16T03:45:05.131Z,12.00
2018-08-16T03:47:32.419Z,13.43
2018-08-16T03:49:59.735Z,10.43
2018-08-16T03:52:26.991Z,10.50
2018-08-16T03:54:54.291Z,11.73
2018-08-16T03:57:21.537Z,11.07
2018-08-16T03:59:49.002Z,11.10
2018-08-16T04:02:16.592Z,11.00
2018-08-16T04:04:44.125Z,11.57
2018-08-16T04:07:11.786Z,11.50
2018-08-16T04:09:39.343Z,11.00
2018-08-16T04:12:06.802Z,11.23
2018-08-16T04:14:34.404Z,11.90
2018-08-16T04:17:02.039Z,12.50
2018-08-16T04:19:29.535Z,13.40
2018-08-16T04:22:00.896Z,12.00
2018-08-16T04:24:28.163Z,12.00
2018-08-16T04:26:55.419Z,13.53
2018-08-16T04:29:22.701Z,13.10
2018-08-16T04:31:49.979Z,13.77
2018-08-16T04:34:17.481Z,14.20
2018-08-16T04:36:44.731Z,13.40
2018-08-16T04:39:11.964Z,13.73
2018-08-16T04:41:39.557Z,13.70
2018-08-16T04:44:06.798Z,14.13
2018-08-16T04:46:34.510Z,14.53
2018-08-16T04:49:01.989Z,13.83
2018-08-16T04:51:32.016Z,14.07
2018-08-16T04:53:59.574Z,16.13
2018-08-16T04:56:26.883Z,15.50
2018-08-16T04:58:54.365Z,13.83
2018-08-16T05:01:21.709Z,13.97
2018-08-16T05:03:48.951Z,13.30
2018-08-16T05:06:16.197Z,14.37
2018-08-16T05:08:44.685Z,15.00
2018-08-16T05:11:12.122Z,14.40
2018-08-16T05:13:39.420Z,12.87
2018-08-16T05:16:08.323Z,13.67
2018-08-16T05:18:35.607Z,14.73
2018-08-16T05:21:02.948Z,13.87
2018-08-16T05:23:30.183Z,13.73
2018-08-16T05:25:57.472Z,13.67
2018-08-16T05:28:25.127Z,14.27
2018-08-16T05:30:52.525Z,16.20
2018-08-16T05:33:19.944Z,15.43
2018-08-16T05:35:47.251Z,14.50
2018-08-16T05:38:14.605Z,13.30
2018-08-16T05:40:41.903Z,13.83
2018-08-16T05:43:09.541Z,14.87
2018-08-16T05:45:36.755Z,14.53
2018-08-16T05:48:04.343Z,15.13
2018-08-16T05:50:32.735Z,12.50
2018-08-16T05:53:00.000Z,12.27
2018-08-16T05:55:28.959Z,11.50
2018-08-16T05:57:56.255Z,11.90
2018-08-16T06:00:23.599Z,11.53
2018-08-16T06:02:50.927Z,11.80
2018-08-16T06:05:18.303Z,12.40
2018-08-16T06:07:45.595Z,12.23
2018-08-16T06:10:12.860Z,12.73
2018-08-16T06:12:40.997Z,12.40
2018-08-16T06:15:08.987Z,12.27
2018-08-16T06:17:36.406Z,14.43
2018-08-16T06:20:06.407Z,12.53
2018-08-16T06:22:33.952Z,13.47
2018-08-16T06:25:01.450Z,13.20
2018-08-16T06:27:28.982Z,13.20
2018-08-16T06:29:56.644Z,13.07
2018-08-16T06:32:24.159Z,13.17
2018-08-16T06:34:54.138Z,13.30
2018-08-16T06:37:21.609Z,12.00
2018-08-16T06:39:49.055Z,11.50
2018-08-16T06:42:16.629Z,12.50
2018-08-16T06:44:44.242Z,11.83
2018-08-16T06:47:14.558Z,13.47
2018-08-16T06:49:42.075Z,12.67
2018-08-16T06:52:09.571Z,11.97
2018-08-16T06:54:37.069Z,12.57
2018-08-16T06:57:04.815Z,12.97
2018-08-16T06:59:32.264Z,14.20
2018-08-16T07:02:01.760Z,12.13
2018-08-16T07:04:29.278Z,11.60
2018-08-16T07:06:56.773Z,11.87
2018-08-16T07:09:24.273Z,12.10
2018-08-16T07:11:54.780Z,11.33
2018-08-16T07:14:22.210Z,11.20
2018-08-16T07:16:49.683Z,11.90
2018-08-16T07:19:17.387Z,11.80
2018-08-16T07:21:44.959Z,12.03
2018-08-16T07:24:17.115Z,10.47
2018-08-16T07:26:44.773Z,10.37
2018-08-16T07:29:12.227Z,10.70
2018-08-16T07:31:39.742Z,10.57
2018-08-16T07:34:07.218Z,9.40
2018-08-16T07:36:38.052Z,8.60
2018-08-16T07:39:07.459Z,8.10
2018-08-16T07:41:34.714Z,8.33
2018-08-16T07:44:01.987Z,7.20
2018-08-16T07:46:29.293Z,7.50
2018-08-16T07:48:56.539Z,8.70
2018-08-16T07:51:28.474Z,7.90
2018-08-16T07:53:55.717Z,7.97
2018-08-16T07:56:22.953Z,8.60
2018-08-16T07:58:50.246Z,9.10
2018-08-16T08:01:17.788Z,8.70
2018-08-16T08:03:45.047Z,8.50
2018-08-16T08:06:12.379Z,8.27
2018-08-16T08:08:40.955Z,8.80
2018-08-16T08:11:08.329Z,7.40
2018-08-16T08:13:35.627Z,8.13
2018-08-16T08:16:02.900Z,8.67
2018-08-16T08:18:30.364Z,9.10
2018-08-16T08:20:57.639Z,7.83
2018-08-16T08:23:24.919Z,8.97
2018-08-16T08:25:54.385Z,8.30
2018-08-16T08:28:21.645Z,8.23
2018-08-16T08:30:48.943Z,7.80
2018-08-16T08:33:16.184Z,8.77
2018-08-16T08:37:52.748Z,8.00
2018-08-16T08:40:20.212Z,9.30
2018-08-16T08:42:47.986Z,8.63
2018-08-16T08:45:15.455Z,8.73
2018-08-16T08:47:48.820Z,9.13
2018-08-16T08:50:16.313Z,9.30
2018-08-16T08:52:43.863Z,10.30
2018-08-16T08:55:22.860Z,8.63
2018-08-16T08:58:01.975Z,8.43
2018-08-16T09:00:29.497Z,8.70
2018-08-16T09:02:57.011Z,9.77
2018-08-16T09:05:24.869Z,9.17
2018-08-16T09:07:54.914Z,8.67
2018-08-16T09:11:05.136Z,9.47
2018-08-16T09:13:44.508Z,8.50
2018-08-16T09:16:20.547Z,9.23
2018-08-16T09:18:47.913Z,9.40
2018-08-16T09:21:15.519Z,9.23
2018-08-16T09:23:42.947Z,8.80
2018-08-16T09:26:16.429Z,8.90
2018-08-16T09:28:43.812Z,8.10
2018-08-16T09:31:23.566Z,7.73
2018-08-16T09:34:02.220Z,7.73
2018-08-16T09:36:29.574Z,8.73
2018-08-16T09:38:57.436Z,9.43
2018-08-16T09:41:24.739Z,8.40
2018-08-16T09:43:52.002Z,8.13
2018-08-16T09:47:05.848Z,8.73
2018-08-16T09:49:35.335Z,8.10
2018-08-16T09:52:03.887Z,8.70
2018-08-16T09:54:31.337Z,7.77
2018-08-16T09:57:03.513Z,8.43
2018-08-16T09:59:30.970Z,8.70
2018-08-16T10:01:58.428Z,8.90
2018-08-16T10:04:26.303Z,8.17
2018-08-16T10:06:53.831Z,8.67
2018-08-16T10:09:22.776Z,8.20
2018-08-16T10:11:53.461Z,7.50
2018-08-16T10:14:21.127Z,8.20
2018-08-16T10:16:48.458Z,8.90
2018-08-16T10:19:15.791Z,7.70
2018-08-16T10:21:43.091Z,7.60
2018-08-16T10:24:10.415Z,7.60
2018-08-16T10:26:37.771Z,9.10
2018-08-16T10:29:07.079Z,9.13
2018-08-16T10:31:34.438Z,7.70
2018-08-16T10:34:01.735Z,7.83
2018-08-16T10:36:29.107Z,8.73
2018-08-16T10:38:56.799Z,8.50
2018-08-16T10:41:24.137Z,7.50
2018-08-16T10:43:56.203Z,7.20
2018-08-16T10:46:23.599Z,6.90
2018-08-16T10:48:51.027Z,5.87
2018-08-16T10:51:18.608Z,6.93
2018-08-16T10:53:45.911Z,6.20
2018-08-16T10:56:13.347Z,7.83
2018-08-16T10:58:45.765Z,8.23
2018-08-16T11:01:13.085Z,7.90
2018-08-16T11:03:40.359Z,6.67
2018-08-16T11:06:07.827Z,7.60
2018-08-16T11:08:35.147Z,7.70
2018-08-16T11:11:02.471Z,7.27
2018-08-16T11:13:33.383Z,7.27
2018-08-16T11:16:00.715Z,6.70
2018-08-16T11:18:28.299Z,7.37
2018-08-16T11:20:55.707Z,6.67
2018-08-16T11:23:22.993Z,6.97
2018-08-16T11:25:50.279Z,6.47
2018-08-16T11:28:23.695Z,6.40
2018-08-16T11:30:50.992Z,6.30
2018-08-16T11:33:18.503Z,5.40
2018-08-16T11:35:45.842Z,6.37
2018-08-16T11:38:13.135Z,6.57
2018-08-16T11:40:40.470Z,6.73
2018-08-16T11:43:10.686Z,7.13
2018-08-16T11:45:38.608Z,6.70
2018-08-16T11:48:05.899Z,6.70
2018-08-16T11:50:33.151Z,6.70
2018-08-16T11:53:00.966Z,7.20
2018-08-16T11:55:28.291Z,6.60
2018-08-16T11:57:55.586Z,7.17
2018-08-16T12:00:22.852Z,6.53
2018-08-16T12:02:50.107Z,6.60
2018-08-16T12:05:17.347Z,6.40
2018-08-16T12:07:44.931Z,6.80
2018-08-16T12:10:12.233Z,7.73
2018-08-16T12:12:39.467Z,9.00
2018-08-16T12:15:07.584Z,7.57
2018-08-16T12:17:34.972Z,7.10
2018-08-16T12:20:02.259Z,6.40
2018-08-16T12:22:29.951Z,6.70
2018-08-16T12:24:57.195Z,6.73
2018-08-16T12:27:24.968Z,6.60
2018-08-16T12:29:53.376Z,6.37
2018-08-16T12:32:20.646Z,5.80
2018-08-16T12:34:47.894Z,6.83
2018-08-16T12:37:15.206Z,7.17
2018-08-16T12:39:42.509Z,7.83
2018-08-16T12:42:09.808Z,6.93
2018-08-16T12:44:37.077Z,6.40
2018-08-16T12:47:04.373Z,6.30
2018-08-16T12:49:31.616Z,6.93
2018-08-16T12:51:58.899Z,6.33
2018-08-16T12:54:26.731Z,7.20
2018-08-16T12:56:54.035Z,6.23
2018-08-16T12:59:21.302Z,8.17
2018-08-16T13:01:48.669Z,6.30
2018-08-16T13:04:15.888Z,6.00
2018-08-16T13:06:43.110Z,6.37
2018-08-16T13:09:10.636Z,6.80
2018-08-16T13:11:38.752Z,6.90
2018-08-16T13:14:06.266Z,6.20
2018-08-16T13:16:34.280Z,6.93
2018-08-16T13:19:01.928Z,7.80
2018-08-16T13:21:29.587Z,6.60
2018-08-16T13:23:57.459Z,6.20
2018-08-16T13:26:24.979Z,6.70
2018-08-16T13:28:52.847Z,6.20
2018-08-16T13:31:20.388Z,6.80
2018-08-16T13:33:47.851Z,6.83
2018-08-16T13:36:15.938Z,6.10
2018-08-16T13:38:43.455Z,7.40
2018-08-16T13:41:12.578Z,7.37
2018-08-16T13:43:40.155Z,6.53
2018-08-16T13:46:07.812Z,6.80
2018-08-16T13:48:35.470Z,7.67
2018-08-16T13:51:02.945Z,6.57
2018-08-16T13:53:30.467Z,6.40
2018-08-16T13:55:58.075Z,6.07
2018-08-16T13:58:25.613Z,6.23
2018-08-16T14:00:53.124Z,6.77
2018-08-16T14:03:20.664Z,6.13
2018-08-16T14:05:48.243Z,7.20
2018-08-16T14:08:15.968Z,6.90
2018-08-16T14:10:45.365Z,7.27
2018-08-16T14:13:12.940Z,6.40
2018-08-16T14:15:40.500Z,7.80
2018-08-16T14:18:08.039Z,6.97
2018-08-16T14:20:35.510Z,6.27
2018-08-16T14:23:02.976Z,6.50
2018-08-16T14:25:30.458Z,6.80
2018-08-16T14:27:57.928Z,7.50
2018-08-16T14:30:25.383Z,6.73
2018-08-16T14:32:52.876Z,6.23
2018-08-16T14:35:20.368Z,6.73
2018-08-16T14:37:47.884Z,6.50
2018-08-16T14:40:15.409Z,7.70
2018-08-16T14:42:42.879Z,7.60
2018-08-16T14:45:10.364Z,6.80
2018-08-16T14:47:38.806Z,6.60
2018-08-16T14:50:06.488Z,7.30
2018-08-16T14:52:34.159Z,7.70
2018-08-16T14:55:01.695Z,7.87
2018-08-16T14:57:29.207Z,7.07
2018-08-16T14:59:56.751Z,7.03
2018-08-16T15:02:24.276Z,7.33
2018-08-16T15:04:51.728Z,7.20
2018-08-16T15:07:19.232Z,8.10
2018-08-16T15:09:46.815Z,7.50
2018-08-16T15:12:14.303Z,7.27
2018-08-16T15:14:41.790Z,8.67
2018-08-16T15:17:09.339Z,7.23
2018-08-16T15:19:36.864Z,7.50
2018-08-16T15:22:04.368Z,7.90
2018-08-16T15:24:31.912Z,8.20
2018-08-16T15:26:59.396Z,8.87
2018-08-16T15:29:26.891Z,7.97
2018-08-16T15:31:54.378Z,7.83
2018-08-16T15:34:21.865Z,7.50
2018-08-16T15:36:49.400Z,9.40
2018-08-16T15:39:16.931Z,8.30
2018-08-16T15:41:44.548Z,8.30
2018-08-16T15:44:12.135Z,8.30
2018-08-16T15:46:39.611Z,9.27
2018-08-16T15:49:07.112Z,7.60
2018-08-16T15:51:34.606Z,8.80
2018-08-16T15:54:02.316Z,9.30
2018-08-16T15:56:29.807Z,8.93
2018-08-16T15:58:57.307Z,8.40
2018-08-16T16:01:24.863Z,9.37
2018-08-16T16:03:52.468Z,8.60
2018-08-16T16:06:20.022Z,8.70
2018-08-16T16:08:47.557Z,9.27
2018-08-16T16:11:15.099Z,9.70
2018-08-16T16:13:42.572Z,8.60
2018-08-16T16:16:10.578Z,10.63
2018-08-16T16:18:38.040Z,9.03
2018-08-16T16:21:05.567Z,8.13
2018-08-16T16:23:33.104Z,8.50
2018-08-16T16:26:00.715Z,9.40
2018-08-16T16:28:28.171Z,9.03
2018-08-16T16:30:55.782Z,9.43
2018-08-16T16:33:23.147Z,9.83
2018-08-16T16:35:50.634Z,10.10
2018-08-16T16:38:18.436Z,9.50
2018-08-16T16:40:45.977Z,9.03
2018-08-16T16:43:13.587Z,8.80
2018-08-16T16:45:41.051Z,9.80
2018-08-16T16:48:08.623Z,8.97
2018-08-16T16:50:36.131Z,9.93
2018-08-16T16:53:03.637Z,9.90
2018-08-16T16:55:31.116Z,10.17
2018-08-16T16:57:58.667Z,10.23
2018-08-16T17:00:26.186Z,9.30
2018-08-16T17:02:53.789Z,9.67
2018-08-16T17:05:21.287Z,9.37
2018-08-16T17:07:48.759Z,10.33
2018-08-16T17:10:16.241Z,9.70
2018-08-16T17:12:43.943Z,9.13
2018-08-16T17:15:11.519Z,10.37
2018-08-16T17:17:39.844Z,10.20
2018-08-16T17:20:08.011Z,10.27
2018-08-16T17:22:35.463Z,9.90
2018-08-16T17:25:03.081Z,9.40
2018-08-16T17:27:30.575Z,9.83
2018-08-16T17:29:58.067Z,9.77
2018-08-16T17:32:25.531Z,10.53
2018-08-16T17:34:53.082Z,11.13
2018-08-16T17:37:23.139Z,10.70
2018-08-16T17:39:50.632Z,10.43
2018-08-16T17:42:18.134Z,9.67
2018-08-16T17:44:45.666Z,9.90
2018-08-16T17:47:13.172Z,9.83
2018-08-16T17:49:40.715Z,10.30
2018-08-16T17:52:11.429Z,9.90
2018-08-16T17:54:38.794Z,9.50
2018-08-16T17:57:06.538Z,10.90
2018-08-16T17:59:34.002Z,10.20
2018-08-16T18:02:01.487Z,10.40
2018-08-16T18:04:33.927Z,10.13
2018-08-16T18:07:01.507Z,11.13
2018-08-16T18:09:28.943Z,10.97
2018-08-16T18:11:56.543Z,10.70
2018-08-16T18:14:23.943Z,10.30
2018-08-16T18:16:51.444Z,10.87
2018-08-16T18:19:20.503Z,11.00
2018-08-16T18:21:48.006Z,10.53
2018-08-16T18:24:15.608Z,10.77
2018-08-16T18:26:43.057Z,11.20
2018-08-16T18:29:10.515Z,10.50
2018-08-16T18:31:37.951Z,9.93
2018-08-16T18:34:05.675Z,9.60
2018-08-16T18:36:33.179Z,11.20
2018-08-16T18:39:00.673Z,11.80
2018-08-16T18:41:28.197Z,11.70
2018-08-16T18:43:55.709Z,11.17
2018-08-16T18:46:23.174Z,11.80
2018-08-16T18:48:50.663Z,11.20
2018-08-16T18:51:18.363Z,10.57
2018-08-16T18:53:45.872Z,11.03
2018-08-16T18:56:13.387Z,10.77
2018-08-16T18:58:40.823Z,9.77
2018-08-16T19:01:08.311Z,10.27
2018-08-16T19:03:35.814Z,10.63
2018-08-16T19:06:03.424Z,9.77
2018-08-16T19:08:30.876Z,10.73
2018-08-16T19:10:58.382Z,10.70
2018-08-16T19:13:25.985Z,10.37
2018-08-16T19:15:53.386Z,11.60
2018-08-16T19:18:20.872Z,17.83
2018-08-16T19:20:50.729Z,10.80
2018-08-16T19:23:20.181Z,10.50
2018-08-16T19:25:47.682Z,10.60
2018-08-16T19:28:15.202Z,10.97
2018-08-16T19:30:42.676Z,11.73
2018-08-16T19:33:10.147Z,10.50
2018-08-16T19:35:39.490Z,11.33
2018-08-16T19:38:06.970Z,10.93
2018-08-16T19:40:34.573Z,11.37
2018-08-16T19:43:02.055Z,11.17
2018-08-16T19:45:29.635Z,10.83
2018-08-16T19:48:01.728Z,11.30
2018-08-16T19:50:29.202Z,11.03
2018-08-16T19:52:56.725Z,11.73
2018-08-16T19:55:24.189Z,12.43
2018-08-16T19:57:51.713Z,12.20
2018-08-16T20:00:19.253Z,11.80
2018-08-16T20:02:47.894Z,13.00
2018-08-16T20:05:15.500Z,12.33
2018-08-16T20:07:43.016Z,10.53
2018-08-16T20:10:10.956Z,11.47
2018-08-16T20:12:38.457Z,10.73
2018-08-16T20:15:10.487Z,12.73
2018-08-16T20:17:38.068Z,12.57
2018-08-16T20:20:06.276Z,11.50
2018-08-16T20:22:33.762Z,12.00
2018-08-16T20:25:01.347Z,12.33
2018-08-16T20:27:28.771Z,12.47
2018-08-16T20:29:57.860Z,12.40
2018-08-16T20:32:25.880Z,13.70
2018-08-16T20:34:53.370Z,12.20
2018-08-16T20:37:20.847Z,14.37
2018-08-16T20:39:48.307Z,13.20
2018-08-16T20:42:19.892Z,13.20
2018-08-16T20:44:47.485Z,13.80
2018-08-16T20:47:14.946Z,12.97
2018-08-16T20:49:42.449Z,14.70
2018-08-16T20:52:09.943Z,13.00
2018-08-16T20:54:37.430Z,13.30
2018-08-16T20:57:06.330Z,11.97
2018-08-16T20:59:33.822Z,13.27
2018-08-16T21:02:01.279Z,12.23
2018-08-16T21:04:28.747Z,13.33
2018-08-16T21:06:56.291Z,11.90
2018-08-16T21:09:28.314Z,13.57
2018-08-16T21:11:55.787Z,13.90
2018-08-16T21:14:23.247Z,13.90
2018-08-16T21:16:50.834Z,13.43
2018-08-16T21:19:18.385Z,13.83
2018-08-16T21:21:45.886Z,12.80
2018-08-16T21:24:14.692Z,12.60
2018-08-16T21:26:42.164Z,13.33
2018-08-16T21:29:09.650Z,12.60
2018-08-16T21:31:37.118Z,13.43
2018-08-16T21:34:04.675Z,12.83
2018-08-16T21:36:32.180Z,13.83
2018-08-16T21:39:05.783Z,14.10
2018-08-16T21:41:33.262Z,14.73
2018-08-16T21:44:00.724Z,13.90
2018-08-16T21:46:28.195Z,15.13
2018-08-16T21:48:55.713Z,14.23
2018-08-16T21:51:23.240Z,13.03
2018-08-16T21:53:54.732Z,14.37
2018-08-16T21:56:22.317Z,14.97
2018-08-16T21:58:49.823Z,14.60
2018-08-16T22:01:17.468Z,13.43
2018-08-16T22:03:44.946Z,13.97
2018-08-16T22:06:23.876Z,14.13
2018-08-16T22:08:51.348Z,13.90
2018-08-16T22:11:19.422Z,14.10
2018-08-16T22:13:46.901Z,13.80
2018-08-16T22:16:14.415Z,14.33
2018-08-16T22:18:44.953Z,14.13
2018-08-16T22:21:12.434Z,14.10
2018-08-16T22:23:39.705Z,13.10
2018-08-16T22:26:07.052Z,13.93
2018-08-16T22:28:34.342Z,13.93
2018-08-16T22:31:01.669Z,14.63
2018-08-16T22:33:33.831Z,16.00
2018-08-16T22:36:01.202Z,14.67
2018-08-16T22:38:28.483Z,14.87
2018-08-16T22:40:55.763Z,15.03
2018-08-16T22:43:23.027Z,15.70
2018-08-16T22:45:50.443Z,15.57
2018-08-16T22:48:21.523Z,16.27
2018-08-16T22:50:49.290Z,16.93
2018-08-16T22:53:16.531Z,17.33
2018-08-16T22:55:43.819Z,16.97
2018-08-16T22:58:11.115Z,17.90
2018-08-16T23:00:38.478Z,14.47
2018-08-16T23:03:05.947Z,15.97
2018-08-16T23:05:36.293Z,16.17
2018-08-16T23:08:03.591Z,16.67
2018-08-16T23:10:30.838Z,15.20
2018-08-16T23:12:58.162Z,15.60
2018-08-16T23:15:25.488Z,15.10
2018-08-16T23:17:52.740Z,17.27
2018-08-16T23:20:24.386Z,15.77
2018-08-16T23:22:51.639Z,15.40
2018-08-16T23:25:18.995Z,16.00
2018-08-16T23:27:46.239Z,15.70
2018-08-16T23:30:14.553Z,15.20
2018-08-16T23:32:42.074Z,16.60
2018-08-16T23:35:12.891Z,16.10
2018-08-16T23:37:40.165Z,16.37
2018-08-16T23:40:09.515Z,16.67
2018-08-16T23:42:36.891Z,16.70
2018-08-16T23:45:05.030Z,16.50
2018-08-16T23:47:36.550Z,15.80
2018-08-16T23:50:05.295Z,17.53
2018-08-16T23:52:33.109Z,14.73
2018-08-16T23:55:00.411Z,15.83
2018-08-16T23:57:27.726Z,15.23
2018-08-16T23:59:54.994Z,16.40
